Time;durP1;ratioP1;P1;durP2;ratioP2;P2;SDS_P1;SDS_P2;PMS_P1;PMS_P2;Temp;Humidity;BMP_temperature;BMP_pressure;BME280_temperature;BME280_humidity;BME280_pressure;Samples;Min_cycle;Max_cycle;Signal;HPM_P1;HPM_P2
2021/12/09 00:00:17;;;;;;;17.38;8.98;;;;;;;3.29;78.85;97615.38;2625720;54;20066;-71
2021/12/09 00:02:47;;;;;;;;;;;;;;;3.25;78.49;97622.75;2627111;31;20613;-70
2021/12/09 00:05:19;;;;;;;19.35;9.60;;;;;;;3.25;78.71;97616.72;2624841;54;19934;-70
2021/12/09 00:07:52;;;;;;;20.48;9.82;;;;;;;3.13;78.17;97616.31;2625274;47;20034;-71
2021/12/09 00:10:22;;;;;;;17.27;8.57;;;;;;;2.96;78.19;97629.47;2625565;39;20543;-71
2021/12/09 00:12:51;;;;;;;20.17;10.63;;;;;;;2.94;78.76;97630.66;2624567;54;20038;-71
2021/12/09 00:15:21;;;;;;;20.95;9.93;;;;;;;2.94;78.48;97628.84;2625247;54;20042;-70
2021/12/09 00:17:50;;;;;;;20.05;9.52;;;;;;;2.82;78.84;97632.84;2625032;47;20619;-70
2021/12/09 00:20:23;;;;;;;18.27;9.48;;;;;;;2.78;79.19;97642.00;2625477;54;20029;-70
2021/12/09 00:22:52;;;;;;;20.15;9.18;;;;;;;2.73;79.15;97639.91;2625813;47;20038;-71
2021/12/09 00:25:22;;;;;;;15.90;9.60;;;;;;;2.68;79.25;97650.00;2625742;54;20050;-70
2021/12/09 00:27:52;;;;;;;21.65;9.32;;;;;;;2.68;79.31;97649.19;2626363;54;20042;-70
2021/12/09 00:30:22;;;;;;;18.27;9.32;;;;;;;2.63;79.18;97659.34;2626161;54;20042;-71
2021/12/09 00:32:52;;;;;;;17.77;9.07;;;;;;;2.59;79.32;97656.25;2626504;39;20277;-71
2021/12/09 00:35:29;;;;;;;23.35;11.55;;;;;;;2.58;79.20;97661.66;2625574;54;20034;-72
2021/12/09 00:38:04;;;;;;;23.10;10.00;;;;;;;2.41;79.43;97666.94;2624268;54;20054;-70
2021/12/09 00:40:33;;;;;;;23.73;10.52;;;;;;;2.41;79.54;97664.31;2625299;54;20030;-71
2021/12/09 00:43:04;;;;;;;16.70;9.23;;;;;;;2.34;79.05;97663.38;2625860;39;20403;-71
2021/12/09 00:45:33;;;;;;;17.80;8.75;;;;;;;2.31;79.12;97661.09;2625477;54;20026;-71
2021/12/09 00:48:03;;;;;;;16.42;8.88;;;;;;;2.30;79.41;97659.47;2625107;47;20026;-71
2021/12/09 00:50:35;;;;;;;15.02;8.75;;;;;;;2.30;79.40;97669.09;2624824;54;20034;-71
2021/12/09 00:53:05;;;;;;;14.75;8.02;;;;;;;2.31;79.62;97670.72;2625241;54;20031;-70
2021/12/09 00:55:35;;;;;;;16.80;7.97;;;;;;;2.36;79.41;97671.81;2626429;54;20034;-71
2021/12/09 00:58:04;;;;;;;20.83;9.27;;;;;;;2.40;79.57;97680.94;2626070;54;20057;-71
2021/12/09 01:00:34;;;;;;;16.45;8.65;;;;;;;2.51;79.92;97679.78;2625935;54;20026;-70
2021/12/09 01:03:04;;;;;;;13.05;8.13;;;;;;;2.51;79.21;97687.59;2624754;54;20018;-71
2021/12/09 01:05:36;;;;;;;13.68;7.20;;;;;;;2.56;79.74;97687.91;2627384;39;20409;-70
2021/12/09 01:08:07;;;;;;;17.75;8.07;;;;;;;2.62;79.75;97686.44;2625835;54;20030;-70
2021/12/09 01:10:37;;;;;;;19.13;8.45;;;;;;;2.66;79.31;97687.72;2625378;54;20042;-71
2021/12/09 01:13:06;;;;;;;19.38;9.57;;;;;;;2.62;79.19;97684.63;2625736;54;20038;-70
2021/12/09 01:15:36;;;;;;;15.82;9.18;;;;;;;2.60;78.85;97693.59;2625818;54;20026;-70
2021/12/09 01:18:06;;;;;;;18.17;8.80;;;;;;;2.51;78.41;97697.22;2625227;47;20031;-71
2021/12/09 01:20:39;;;;;;;25.83;10.73;;;;;;;2.45;78.58;97703.94;2624829;54;20030;-70
2021/12/09 01:23:09;;;;;;;17.00;8.13;;;;;;;2.42;78.66;97701.66;2625044;47;20031;-70
2021/12/09 01:25:38;;;;;;;13.10;7.95;;;;;;;2.40;78.92;97698.38;2626573;39;20421;-71
2021/12/09 01:28:14;;;;;;;14.95;7.90;;;;;;;2.44;79.16;97703.09;2625717;54;20038;-70
2021/12/09 01:30:45;;;;;;;14.90;8.32;;;;;;;2.39;78.76;97702.78;2626622;39;20348;-70
2021/12/09 01:33:15;;;;;;;12.27;7.57;;;;;;;2.34;78.90;97689.44;2625066;54;20029;-70
2021/12/09 01:35:48;;;;;;;21.10;9.50;;;;;;;2.33;78.90;97697.44;2625643;54;20031;-71
2021/12/09 01:38:18;;;;;;;15.48;8.38;;;;;;;2.23;78.72;97693.22;2625529;54;20038;-70
2021/12/09 01:40:48;;;;;;;27.05;9.30;;;;;;;2.21;78.55;97699.59;2625621;54;20557;-71
2021/12/09 01:43:18;;;;;;;15.73;8.18;;;;;;;2.16;78.43;97692.28;2625330;54;20033;-70
2021/12/09 01:45:47;;;;;;;19.08;9.18;;;;;;;2.08;78.82;97699.28;2625173;54;20030;-70
2021/12/09 01:48:17;;;;;;;28.65;13.02;;;;;;;2.05;79.22;97695.22;2625474;54;20029;-70
2021/12/09 01:50:49;;;;;;;23.45;10.90;;;;;;;2.05;79.79;97692.63;2625429;54;20042;-71
2021/12/09 01:53:19;;;;;;;37.20;16.48;;;;;;;2.01;79.79;97693.94;2625190;54;20042;-70
2021/12/09 01:55:49;;;;;;;32.17;14.05;;;;;;;1.99;79.71;97688.84;2625597;54;20039;-71
2021/12/09 01:58:18;;;;;;;17.55;9.35;;;;;;;1.89;79.57;97690.03;2627685;39;20438;-71
2021/12/09 02:00:48;;;;;;;23.25;11.35;;;;;;;1.72;79.96;97684.84;2624984;47;20034;-71
2021/12/09 02:03:18;;;;;;;20.85;10.35;;;;;;;1.71;80.29;97683.22;2625557;54;20018;-71
2021/12/09 02:05:50;;;;;;;21.60;10.32;;;;;;;1.80;80.89;97694.44;2625461;54;20018;-71
2021/12/09 02:08:20;;;;;;;99.18;13.93;;;;;;;1.76;80.41;97690.53;2625381;54;20034;-70
2021/12/09 02:10:52;;;;;;;31.90;12.00;;;;;;;1.64;80.45;97691.84;2624628;54;20027;-70
2021/12/09 02:13:23;;;;;;;39.75;11.50;;;;;;;1.67;80.69;97691.50;2624259;54;20034;-71
2021/12/09 02:15:55;;;;;;;31.60;10.77;;;;;;;1.63;80.42;97690.19;2624849;39;20429;-70
2021/12/09 02:18:26;;;;;;;32.25;10.75;;;;;;;1.68;81.03;97685.31;2624883;54;20047;-70
2021/12/09 02:21:10;;;;;;;20.80;9.25;;;;;;;1.73;80.82;97685.63;2625431;54;20030;-70
2021/12/09 02:23:44;;;;;;;18.13;9.63;;;;;;;1.67;80.36;97687.13;2625221;54;20565;-70
2021/12/09 02:26:14;;;;;;;17.50;8.38;;;;;;;1.60;80.41;97695.75;2624099;54;20045;-70
2021/12/09 02:28:45;;;;;;;16.95;8.35;;;;;;;1.59;80.59;97691.50;2624473;54;20065;-70
2021/12/09 02:31:15;;;;;;;12.98;8.18;;;;;;;1.49;80.52;97689.88;2625176;54;20102;-70
2021/12/09 02:33:45;;;;;;;13.63;7.05;;;;;;;1.44;80.58;97686.94;2625047;54;20022;-71
2021/12/09 02:36:17;;;;;;;15.05;7.97;;;;;;;1.45;80.43;97687.75;2624892;54;20037;-71
2021/12/09 02:38:49;;;;;;;12.75;7.93;;;;;;;1.44;80.55;97688.75;2625502;54;20030;-70
2021/12/09 02:41:21;;;;;;;13.75;7.53;;;;;;;1.48;80.88;97683.03;2625228;54;20042;-70
2021/12/09 02:43:54;;;;;;;12.75;6.93;;;;;;;1.47;80.11;97694.44;2624729;54;20041;-70
2021/12/09 02:46:25;;;;;;;13.63;6.53;;;;;;;1.48;80.38;97692.66;2626127;54;20553;-71
2021/12/09 02:48:56;;;;;;;11.38;6.85;;;;;;;1.61;80.27;97694.75;2625535;54;20581;-71
2021/12/09 02:51:28;;;;;;;9.68;6.72;;;;;;;1.72;80.01;97695.25;2625581;54;20030;-71
2021/12/09 02:53:58;;;;;;;11.15;7.43;;;;;;;1.77;79.83;97697.38;2626310;54;20123;-70
2021/12/09 02:56:27;;;;;;;11.02;7.03;;;;;;;1.79;79.62;97695.41;2625802;54;20030;-71
2021/12/09 02:58:57;;;;;;;15.52;8.18;;;;;;;1.83;79.14;97694.09;2625927;54;20636;-70
2021/12/09 03:01:33;;;;;;;12.15;7.00;;;;;;;1.84;79.00;97698.34;2625625;54;20061;-70
2021/12/09 03:04:05;;;;;;;12.38;6.70;;;;;;;1.85;78.78;97697.34;2626003;54;20041;-70
2021/12/09 03:06:41;;;;;;;12.68;6.65;;;;;;;1.85;78.95;97699.97;2625953;54;20030;-72
2021/12/09 03:09:14;;;;;;;9.20;6.18;;;;;;;1.83;78.38;97696.69;2625737;54;20039;-71
2021/12/09 03:11:44;;;;;;;8.60;6.00;;;;;;;1.76;78.24;97700.16;2625489;39;21057;-71
2021/12/09 03:14:14;;;;;;;12.68;6.65;;;;;;;1.72;78.38;97710.88;2624249;54;20030;-71
2021/12/09 03:16:44;;;;;;;10.70;6.78;;;;;;;1.74;77.86;97716.72;2624531;54;20057;-71
2021/12/09 03:19:13;;;;;;;12.73;7.30;;;;;;;1.71;77.74;97724.06;2624269;54;20094;-72
2021/12/09 03:21:48;;;;;;;12.57;7.68;;;;;;;1.67;78.30;97725.34;2623321;54;20045;-71
2021/12/09 03:24:21;;;;;;;12.82;7.50;;;;;;;1.65;78.11;97724.72;2623714;54;20026;-71
2021/12/09 03:26:54;;;;;;;15.80;7.75;;;;;;;1.62;78.37;97735.47;2623517;54;20023;-71
2021/12/09 03:29:25;;;;;;;12.70;8.18;;;;;;;1.64;78.71;97744.75;2624534;54;20549;-72
2021/12/09 03:31:56;;;;;;;13.50;8.05;;;;;;;1.73;78.89;97746.38;2623930;47;20114;-70
2021/12/09 03:34:28;;;;;;;16.88;8.80;;;;;;;1.82;79.08;97749.00;2625024;47;20069;-71
2021/12/09 03:37:03;;;;;;;15.85;9.02;;;;;;;1.88;78.93;97756.16;2624854;54;20089;-71
2021/12/09 03:39:36;;;;;;;14.50;7.95;;;;;;;1.79;77.93;97757.13;2623509;54;20053;-71
2021/12/09 03:42:07;;;;;;;15.43;8.15;;;;;;;1.47;78.66;97763.94;2622724;54;20046;-71
2021/12/09 03:44:38;;;;;;;11.93;7.80;;;;;;;1.45;79.22;97769.31;2623179;54;20081;-71
2021/12/09 03:47:11;;;;;;;11.20;7.72;;;;;;;1.56;79.64;97778.59;2623548;47;20030;-71
2021/12/09 03:49:42;;;;;;;16.17;8.10;;;;;;;1.65;79.31;97774.22;2623411;54;20046;-71
2021/12/09 03:52:15;;;;;;;14.57;7.57;;;;;;;1.66;79.06;97783.66;2622853;46;20046;-71
2021/12/09 03:54:47;;;;;;;15.20;7.83;;;;;;;1.73;79.84;97790.69;2624579;39;20672;-71
2021/12/09 03:57:17;;;;;;;13.02;7.25;;;;;;;1.83;79.70;97798.31;2624039;54;20035;-72
2021/12/09 03:59:47;;;;;;;11.20;6.93;;;;;;;1.85;79.47;97793.78;2622919;54;20038;-71
2021/12/09 04:02:17;;;;;;;14.32;7.20;;;;;;;1.84;78.75;97799.97;2622414;54;20147;-71
2021/12/09 04:04:47;;;;;;;14.10;7.10;;;;;;;1.74;79.03;97797.50;2622852;47;20030;-70
2021/12/09 04:07:19;;;;;;;13.43;8.23;;;;;;;1.80;79.31;97798.69;2622792;54;20038;-71
2021/12/09 04:09:49;;;;;;;15.38;7.60;;;;;;;1.88;79.45;97797.88;2623523;54;20038;-72
2021/12/09 04:12:19;;;;;;;15.60;8.68;;;;;;;1.97;79.17;97797.69;2622871;54;20078;-72
2021/12/09 04:14:49;;;;;;;13.63;7.55;;;;;;;1.99;79.20;97800.94;2622636;47;20038;-71
2021/12/09 04:17:18;;;;;;;11.93;7.78;;;;;;;1.98;78.85;97795.91;2623881;54;20035;-69
2021/12/09 04:19:49;;;;;;;13.98;8.38;;;;;;;1.96;79.11;97803.91;2623751;54;20164;-71
2021/12/09 04:22:23;;;;;;;14.68;7.75;;;;;;;1.95;79.31;97806.66;2623497;47;20034;-70
2021/12/09 04:24:55;;;;;;;13.95;8.02;;;;;;;1.89;79.43;97804.69;2624093;54;20030;-69
2021/12/09 04:27:25;;;;;;;14.70;7.97;;;;;;;1.95;79.18;97806.66;2625295;54;20038;-69
2021/12/09 04:29:56;;;;;;;12.10;8.18;;;;;;;2.06;79.51;97808.13;2626424;39;20852;-69
2021/12/09 04:32:26;;;;;;;13.82;8.65;;;;;;;2.18;80.00;97817.25;2624958;54;20090;-71
2021/12/09 04:35:00;;;;;;;;;;;;;;;2.39;79.99;97816.75;2625454;54;20041;-69
2021/12/09 04:37:32;;;;;;;17.73;8.57;;;;;;;2.54;79.77;97816.91;2624799;54;20449;-71
2021/12/09 04:40:02;;;;;;;18.48;10.65;;;;;;;2.61;79.17;97816.09;2625635;39;20477;-70
2021/12/09 04:42:31;;;;;;;11.80;8.52;;;;;;;2.71;79.59;97811.47;2625232;54;20038;-69
2021/12/09 04:45:01;;;;;;;13.00;8.80;;;;;;;2.78;79.55;97809.03;2624985;54;20113;-70
2021/12/09 04:47:31;;;;;;;17.52;9.75;;;;;;;2.85;79.29;97802.13;2625466;54;20026;-69
2021/12/09 04:50:01;;;;;;;19.17;10.15;;;;;;;2.87;79.38;97800.19;2624730;47;20035;-68
2021/12/09 04:52:33;;;;;;;16.98;10.75;;;;;;;2.93;78.89;97796.88;2625453;54;20035;-70
2021/12/09 04:55:03;;;;;;;22.98;11.57;;;;;;;2.98;78.91;97781.53;2623970;47;20039;-70
2021/12/09 04:57:32;;;;;;;15.13;10.00;;;;;;;3.01;79.37;97785.59;2624603;54;20050;-75
2021/12/09 05:00:03;;;;;;;18.48;9.88;;;;;;;3.01;79.30;97790.00;2624172;46;20046;-71
2021/12/09 05:02:48;;;;;;;16.65;11.38;;;;;;;3.04;79.29;97789.69;2623940;47;20034;-70
2021/12/09 05:05:19;;;;;;;18.83;11.02;;;;;;;3.12;79.56;97790.47;2623342;54;20038;-70
2021/12/09 05:07:51;;;;;;;15.48;10.30;;;;;;;3.16;78.96;97798.78;2622701;54;20038;-72
2021/12/09 05:10:21;;;;;;;18.52;11.52;;;;;;;3.19;78.96;97803.66;2624028;39;20403;-71
2021/12/09 05:12:50;;;;;;;18.67;10.63;;;;;;;3.20;79.07;97803.47;2623010;54;20614;-70
2021/12/09 05:15:20;;;;;;;16.10;9.90;;;;;;;3.15;78.91;97810.22;2624781;39;20022;-70
2021/12/09 05:17:49;;;;;;;18.05;10.35;;;;;;;3.09;78.49;97803.03;2623752;54;20051;-71
2021/12/09 05:20:19;;;;;;;14.73;9.43;;;;;;;3.01;78.68;97800.44;2624288;46;20086;-70
2021/12/09 05:22:51;;;;;;;13.65;9.10;;;;;;;2.97;78.38;97794.75;2623457;47;20033;-70
2021/12/09 05:25:21;;;;;;;16.95;9.40;;;;;;;2.96;78.92;97793.13;2624114;54;20034;-71
2021/12/09 05:27:50;;;;;;;20.85;9.85;;;;;;;3.01;78.55;97801.25;2624004;54;20037;-70
2021/12/09 05:30:24;;;;;;;17.73;10.02;;;;;;;3.03;78.34;97799.31;2624095;54;20103;-70
2021/12/09 05:32:52;;;;;;;17.73;9.88;;;;;;;3.07;78.74;97800.59;2624280;54;20031;-71
2021/12/09 05:35:22;;;;;;;15.40;10.18;;;;;;;3.09;78.18;97803.84;2625247;54;20046;-71
2021/12/09 05:37:54;;;;;;;15.55;10.88;;;;;;;3.07;78.16;97798.00;2625369;54;20034;-70
2021/12/09 05:40:24;;;;;;;21.63;12.00;;;;;;;3.08;78.26;97804.03;2624349;47;20031;-71
2021/12/09 05:42:54;;;;;;;18.02;11.50;;;;;;;3.12;78.82;97808.72;2624591;54;20043;-70
2021/12/09 05:45:23;;;;;;;17.85;11.27;;;;;;;3.14;78.84;97813.78;2624927;54;20061;-70
2021/12/09 05:47:53;;;;;;;18.92;10.40;;;;;;;3.18;78.71;97818.53;2624716;54;20030;-70
2021/12/09 05:50:22;;;;;;;16.52;11.13;;;;;;;3.23;78.39;97823.22;2624461;54;20038;-69
2021/12/09 05:52:54;;;;;;;26.83;12.13;;;;;;;3.26;78.65;97825.47;2624537;47;20042;-71
2021/12/09 05:55:24;;;;;;;16.58;10.60;;;;;;;3.31;78.84;97831.03;2623587;54;20034;-69
2021/12/09 05:57:54;;;;;;;18.13;11.15;;;;;;;3.36;78.42;97826.09;2623915;47;20046;-70
2021/12/09 06:00:23;;;;;;;18.92;12.10;;;;;;;3.35;77.87;97827.09;2626238;54;20037;-70
2021/12/09 06:02:53;;;;;;;22.40;13.05;;;;;;;3.32;78.54;97816.97;2625701;47;20034;-70
2021/12/09 06:05:24;;;;;;;21.60;11.98;;;;;;;3.28;78.35;97820.91;2626086;54;20561;-70
2021/12/09 06:07:56;;;;;;;22.73;12.13;;;;;;;3.34;78.42;97825.44;2626442;54;20034;-69
2021/12/09 06:10:25;;;;;;;22.65;12.40;;;;;;;3.40;78.56;97831.81;2626306;39;20510;-70
2021/12/09 06:12:55;;;;;;;20.48;12.60;;;;;;;3.41;78.32;97833.44;2625766;54;20530;-70
2021/12/09 06:15:25;;;;;;;28.13;13.63;;;;;;;3.40;78.29;97827.38;2626116;39;20429;-70
2021/12/09 06:17:54;;;;;;;28.55;13.32;;;;;;;3.38;78.21;97826.72;2625209;54;20601;-72
2021/12/09 06:20:24;;;;;;;20.65;11.68;;;;;;;3.36;77.99;97831.31;2624898;54;20030;-70
2021/12/09 06:22:56;;;;;;;21.33;12.02;;;;;;;3.38;77.99;97842.41;2621922;54;20031;-70
2021/12/09 06:25:26;;;;;;;20.85;13.15;;;;;;;3.37;78.14;97840.78;2622862;54;20023;-68
2021/12/09 06:27:56;;;;;;;20.65;12.60;;;;;;;3.35;78.30;97842.78;2621736;54;20045;-70
2021/12/09 06:30:26;;;;;;;21.33;12.57;;;;;;;3.39;78.17;97845.84;2622298;54;20061;-70
2021/12/09 06:32:56;;;;;;;23.13;11.18;;;;;;;3.44;78.38;97848.78;2621272;54;20030;-69
2021/12/09 06:35:27;;;;;;;21.73;10.18;;;;;;;3.46;77.80;97844.97;2620321;47;20038;-70
2021/12/09 06:38:00;;;;;;;18.40;11.07;;;;;;;3.48;77.96;97837.00;2621558;54;20053;-69
2021/12/09 06:40:30;;;;;;;25.05;11.60;;;;;;;3.51;78.08;97847.09;2621578;54;20161;-71
2021/12/09 06:43:00;;;;;;;20.80;10.70;;;;;;;3.45;77.72;97845.97;2621099;54;20567;-69
2021/12/09 06:45:29;;;;;;;17.92;10.02;;;;;;;3.43;77.95;97849.75;2622102;39;20465;-72
2021/12/09 06:47:59;;;;;;;19.65;10.07;;;;;;;3.40;78.16;97856.13;2623225;47;20553;-73
2021/12/09 06:50:29;;;;;;;21.77;12.50;;;;;;;3.41;78.16;97860.38;2622824;54;20030;-72
2021/12/09 06:53:01;;;;;;;21.38;14.50;;;;;;;3.46;77.70;97862.47;2623185;54;20030;-71
2021/12/09 06:55:31;;;;;;;19.40;11.05;;;;;;;3.48;77.85;97869.16;2622582;54;20018;-70
2021/12/09 06:58:01;;;;;;;21.80;13.60;;;;;;;3.54;77.49;97874.69;2622613;54;20027;-71
2021/12/09 07:00:33;;;;;;;25.05;12.90;;;;;;;3.61;77.75;97873.81;2621868;47;20039;-71
2021/12/09 07:03:03;;;;;;;16.65;10.32;;;;;;;3.66;77.96;97875.94;2622273;54;20042;-71
2021/12/09 07:05:33;;;;;;;21.75;11.55;;;;;;;3.64;77.73;97886.56;2625610;54;20029;-72
2021/12/09 07:08:07;;;;;;;22.73;11.82;;;;;;;3.65;77.62;97893.41;2625049;54;20030;-72
2021/12/09 07:10:36;;;;;;;22.27;12.13;;;;;;;3.65;77.79;97896.03;2625568;54;20038;-71
2021/12/09 07:13:06;;;;;;;19.38;11.10;;;;;;;3.57;77.22;97892.63;2624703;47;20034;-72
2021/12/09 07:15:36;;;;;;;24.27;12.80;;;;;;;3.54;77.69;97887.75;2625482;54;20026;-70
2021/12/09 07:18:07;;;;;;;22.88;12.30;;;;;;;3.54;77.29;97891.16;2624867;47;20026;-70
2021/12/09 07:20:37;;;;;;;17.98;11.85;;;;;;;3.55;77.22;97897.19;2625337;47;20034;-73
2021/12/09 07:23:09;;;;;;;19.17;12.13;;;;;;;3.52;77.48;97897.56;2625098;54;20054;-70
2021/12/09 07:25:38;;;;;;;21.90;12.15;;;;;;;3.51;77.76;97906.38;2623376;47;20038;-73
2021/12/09 07:28:08;;;;;;;22.83;11.82;;;;;;;3.48;77.43;97905.75;2623866;54;20042;-71
2021/12/09 07:30:38;;;;;;;20.15;11.88;;;;;;;3.43;77.52;97913.28;2623430;54;20031;-71
2021/12/09 07:33:08;;;;;;;19.90;11.65;;;;;;;3.47;77.49;97925.03;2624406;39;20449;-71
2021/12/09 07:35:39;;;;;;;19.52;11.80;;;;;;;3.51;77.61;97932.50;2623305;47;20022;-70
2021/12/09 07:38:12;;;;;;;27.77;13.75;;;;;;;3.49;77.65;97935.28;2623402;54;20037;-70
2021/12/09 07:40:42;;;;;;;23.33;13.55;;;;;;;3.52;77.59;97940.19;2624918;39;20415;-69
2021/12/09 07:43:12;;;;;;;22.05;12.98;;;;;;;3.58;77.89;97943.91;2624262;54;20038;-70
2021/12/09 07:45:41;;;;;;;22.58;12.80;;;;;;;3.55;77.88;97939.84;2624114;47;20150;-72
2021/12/09 07:48:11;;;;;;;21.05;12.50;;;;;;;3.52;77.77;97942.00;2624837;39;20520;-70
2021/12/09 07:50:41;;;;;;;19.00;12.40;;;;;;;3.53;77.57;97954.06;2623760;54;20031;-72
2021/12/09 07:53:13;;;;;;;20.58;12.35;;;;;;;3.50;77.90;97959.63;2622709;47;20593;-70
2021/12/09 07:55:43;;;;;;;23.48;13.15;;;;;;;3.46;77.34;97956.53;2623571;54;20034;-70
2021/12/09 07:58:12;;;;;;;22.20;11.73;;;;;;;3.39;77.80;97963.44;2623942;54;20038;-71
2021/12/09 08:00:42;;;;;;;20.75;12.05;;;;;;;3.35;77.69;97968.16;2623157;54;20057;-71
2021/12/09 08:03:12;;;;;;;23.83;12.00;;;;;;;3.32;77.33;97971.09;2623922;54;20030;-71
2021/12/09 08:05:45;;;;;;;21.50;11.40;;;;;;;3.26;77.31;97974.38;2624824;54;20026;-70
2021/12/09 08:08:17;;;;;;;19.55;12.10;;;;;;;3.25;77.93;97974.53;2624132;54;20039;-71
2021/12/09 08:10:50;;;;;;;20.55;11.90;;;;;;;3.18;77.35;97975.22;2624824;39;20434;-71
2021/12/09 08:13:21;;;;;;;21.15;13.13;;;;;;;3.22;77.81;97965.22;2624518;54;20138;-70
2021/12/09 08:15:54;;;;;;;23.77;11.73;;;;;;;3.13;77.71;97974.88;2623373;47;20031;-70
2021/12/09 08:18:32;;;;;;;16.23;11.23;;;;;;;3.04;77.32;97975.88;2623932;54;20030;-70
2021/12/09 08:21:04;;;;;;;18.02;12.18;;;;;;;3.04;77.61;97977.69;2623990;54;20027;-70
2021/12/09 08:23:36;;;;;;;23.98;12.23;;;;;;;3.01;77.66;97978.00;2624304;54;20038;-70
2021/12/09 08:26:05;;;;;;;23.13;11.52;;;;;;;3.02;78.21;97977.00;2625047;54;20034;-70
2021/12/09 08:28:35;;;;;;;23.77;11.73;;;;;;;3.03;78.21;97976.06;2625061;54;20030;-70
2021/12/09 08:31:06;;;;;;;21.88;11.68;;;;;;;3.02;78.00;97972.63;2625351;54;20034;-71
2021/12/09 08:33:35;;;;;;;20.27;11.80;;;;;;;3.08;78.09;97974.56;2625844;54;20030;-71
2021/12/09 08:36:06;;;;;;;20.98;12.68;;;;;;;3.06;78.13;97971.31;2625884;54;20069;-70
2021/12/09 08:38:39;;;;;;;19.00;12.30;;;;;;;3.13;78.27;97967.03;2625750;54;20065;-70
2021/12/09 08:41:09;;;;;;;21.20;12.82;;;;;;;3.14;78.02;97966.09;2624184;47;20029;-70
2021/12/09 08:43:38;;;;;;;24.50;13.38;;;;;;;3.15;78.10;97964.28;2624485;54;20030;-71
2021/12/09 08:46:11;;;;;;;19.45;12.50;;;;;;;3.13;77.98;97972.28;2626918;39;20461;-71
2021/12/09 08:48:40;;;;;;;21.77;13.82;;;;;;;3.17;78.37;97968.34;2625135;54;20023;-72
2021/12/09 08:51:10;;;;;;;19.95;13.38;;;;;;;3.21;78.41;97967.03;2626358;39;20461;-71
2021/12/09 08:53:43;;;;;;;21.13;14.18;;;;;;;3.13;78.31;97967.03;2625660;54;20038;-71
2021/12/09 08:56:12;;;;;;;25.90;14.48;;;;;;;3.09;78.32;97970.97;2625261;54;20029;-70
2021/12/09 08:58:43;;;;;;;23.45;12.60;;;;;;;3.10;78.07;97971.78;2626124;54;20053;-70
2021/12/09 09:01:15;;;;;;;25.50;14.98;;;;;;;3.13;78.56;97974.06;2625458;54;20045;-71
2021/12/09 09:03:45;;;;;;;25.50;14.75;;;;;;;3.12;78.39;97975.06;2625502;54;20070;-71
2021/12/09 09:06:15;;;;;;;27.05;15.05;;;;;;;3.11;78.23;97986.50;2625525;54;20034;-71
2021/12/09 09:08:50;;;;;;;24.52;13.77;;;;;;;3.14;78.51;97988.75;2624899;54;20089;-71
2021/12/09 09:11:20;;;;;;;20.42;12.50;;;;;;;3.09;78.17;97985.81;2625524;54;20030;-71
2021/12/09 09:13:50;;;;;;;24.38;13.65;;;;;;;3.13;78.50;97994.97;2626225;54;20131;-70
2021/12/09 09:16:20;;;;;;;20.30;11.73;;;;;;;3.12;78.40;97986.31;2626230;47;20027;-71
2021/12/09 09:18:53;;;;;;;19.45;11.95;;;;;;;3.04;78.44;97988.13;2625780;54;20023;-70
2021/12/09 09:21:23;;;;;;;23.67;15.18;;;;;;;3.03;78.26;97986.50;2625034;54;20026;-70
2021/12/09 09:23:56;;;;;;;29.42;17.92;;;;;;;3.06;78.59;97993.97;2624884;54;20038;-69
2021/12/09 09:26:26;;;;;;;25.88;15.40;;;;;;;3.07;78.31;97996.44;2625058;54;20033;-70
2021/12/09 09:28:56;;;;;;;21.13;13.30;;;;;;;3.13;78.27;97994.97;2624851;54;20596;-69
2021/12/09 09:31:28;;;;;;;25.45;14.50;;;;;;;3.20;78.13;98003.78;2625032;54;20557;-70
2021/12/09 09:33:59;;;;;;;25.95;15.18;;;;;;;3.27;78.11;98006.56;2624875;54;20035;-70
2021/12/09 09:36:29;;;;;;;26.60;15.32;;;;;;;3.30;77.83;98004.41;2624354;54;20038;-70
2021/12/09 09:39:11;;;;;;;23.33;13.35;;;;;;;3.24;77.94;98010.31;2624324;54;20045;-70
2021/12/09 09:41:40;;;;;;;20.80;13.35;;;;;;;3.26;77.85;98012.75;2623624;54;20553;-69
2021/12/09 09:44:15;;;;;;;22.45;14.20;;;;;;;3.30;78.04;98014.84;2624646;54;20569;-69
2021/12/09 09:46:46;;;;;;;23.45;13.10;;;;;;;3.32;77.96;98018.13;2625898;54;20061;-69
2021/12/09 09:49:15;;;;;;;19.70;13.00;;;;;;;3.37;77.66;98020.25;2626267;54;20066;-68
2021/12/09 09:51:45;;;;;;;33.35;18.25;;;;;;;3.46;77.69;98022.66;2625967;54;20057;-69
2021/12/09 09:54:17;;;;;;;31.73;18.92;;;;;;;3.57;77.82;98020.69;2625245;47;20026;-69
2021/12/09 09:56:48;;;;;;;39.63;20.95;;;;;;;3.56;77.66;98011.22;2624825;47;20027;-69
2021/12/09 09:59:18;;;;;;;35.30;20.65;;;;;;;3.61;77.37;98016.75;2625785;54;20061;-69
2021/12/09 10:01:52;;;;;;;22.92;13.77;;;;;;;3.60;77.20;98009.91;2624904;54;20608;-69
2021/12/09 10:04:31;;;;;;;29.80;19.42;;;;;;;3.62;77.35;98011.34;2625154;54;20037;-69
2021/12/09 10:07:02;;;;;;;38.38;18.23;;;;;;;3.62;77.29;98002.69;2625775;54;20033;-69
2021/12/09 10:09:35;;;;;;;23.90;13.75;;;;;;;3.61;76.96;98004.50;2625344;54;20041;-69
2021/12/09 10:12:05;;;;;;;25.52;14.38;;;;;;;3.58;77.00;98004.84;2625456;54;20034;-69
2021/12/09 10:14:37;;;;;;;36.13;15.57;;;;;;;3.64;77.17;97995.53;2625773;54;20043;-69
2021/12/09 10:17:10;;;;;;;28.70;14.20;;;;;;;3.69;76.96;98009.72;2625541;54;20057;-69
2021/12/09 10:19:41;;;;;;;25.50;14.35;;;;;;;3.72;76.96;98000.72;2625220;46;20057;-68
2021/12/09 10:22:16;;;;;;;25.88;13.68;;;;;;;3.77;76.59;98001.03;2623119;54;20038;-71
2021/12/09 10:24:50;;;;;;;25.00;13.50;;;;;;;3.80;76.77;97999.88;2624377;54;20082;-69
2021/12/09 10:27:24;;;;;;;23.63;13.70;;;;;;;3.81;76.77;97997.09;2625434;54;20026;-69
2021/12/09 10:29:59;;;;;;;21.35;14.68;;;;;;;3.83;76.39;97995.13;2625427;54;20031;-68
2021/12/09 10:32:33;;;;;;;25.15;13.43;;;;;;;3.81;76.38;97981.41;2624700;54;20576;-69
2021/12/09 10:35:09;;;;;;;21.45;13.02;;;;;;;3.91;76.41;97981.19;2625290;54;20053;-69
2021/12/09 10:37:39;;;;;;;26.98;12.30;;;;;;;3.90;75.91;97983.00;2625238;54;20050;-68
2021/12/09 10:40:15;;;;;;;35.30;15.05;;;;;;;3.76;75.65;97991.56;2625865;54;20046;-68
2021/12/09 10:42:47;;;;;;;28.38;14.75;;;;;;;3.73;76.34;97989.28;2625695;54;20033;-68
2021/12/09 10:45:18;;;;;;;29.48;14.65;;;;;;;3.82;76.43;97993.50;2624726;47;20567;-67
2021/12/09 10:47:55;;;;;;;28.35;13.57;;;;;;;3.86;76.41;97989.56;2625423;54;20530;-68
2021/12/09 10:50:34;;;;;;;28.50;14.90;;;;;;;3.85;75.91;97987.13;2625172;47;20031;-68
2021/12/09 10:53:29;;;;;;;25.77;12.50;;;;;;;3.77;76.39;97993.19;2625425;54;20585;-68
2021/12/09 10:56:02;;;;;;;24.17;13.18;;;;;;;3.79;76.04;97993.81;2625515;54;20038;-67
2021/12/09 10:58:34;;;;;;;34.78;17.15;;;;;;;3.86;76.22;97989.56;2624337;54;20034;-69
2021/12/09 11:01:08;;;;;;;33.47;15.75;;;;;;;3.91;76.23;97989.84;2625291;54;20029;-68
2021/12/09 11:03:40;;;;;;;32.43;15.93;;;;;;;3.88;76.26;97992.81;2625365;54;20038;-68
2021/12/09 11:06:12;;;;;;;27.85;15.55;;;;;;;3.89;75.85;97991.84;2625778;54;20045;-69
2021/12/09 11:08:44;;;;;;;27.45;13.73;;;;;;;3.79;75.73;97993.81;2625571;39;20513;-71
2021/12/09 11:11:19;;;;;;;31.38;15.02;;;;;;;3.81;76.04;97985.81;2623933;47;20037;-69
2021/12/09 11:13:52;;;;;;;30.15;15.57;;;;;;;3.78;75.71;97989.59;2625362;54;20042;-69
2021/12/09 11:16:26;;;;;;;29.50;15.32;;;;;;;3.78;76.35;97986.97;2621953;54;20049;-69
2021/12/09 11:19:00;;;;;;;21.65;12.73;;;;;;;3.91;76.07;97981.19;2619488;54;20106;-69
2021/12/09 11:21:37;;;;;;;19.17;12.13;;;;;;;3.91;75.61;97983.81;2619071;54;20030;-69
2021/12/09 11:24:11;;;;;;;19.27;10.73;;;;;;;3.93;75.90;97987.91;2618465;47;20556;-69
2021/12/09 11:26:55;;;;;;;17.48;10.35;;;;;;;3.84;75.78;97977.66;2624644;54;20034;-68
2021/12/09 11:29:29;;;;;;;20.05;10.05;;;;;;;3.87;75.73;97982.53;2628096;54;20074;-69
2021/12/09 11:32:06;;;;;;;22.58;10.73;;;;;;;3.87;75.80;97980.72;2628393;54;20035;-68
2021/12/09 11:34:43;;;;;;;15.88;9.05;;;;;;;3.86;76.19;97970.44;2628225;54;20033;-68
2021/12/09 11:37:35;;;;;;;20.65;9.85;;;;;;;3.84;76.07;97965.38;2628929;47;20150;-67
2021/12/09 11:40:21;;;;;;;19.30;10.13;;;;;;;3.88;76.00;97964.06;2627932;47;20031;-68
2021/12/09 11:43:00;;;;;;;15.80;9.50;;;;;;;3.94;76.32;97963.38;2628800;54;20018;-68
2021/12/09 11:45:33;;;;;;;20.02;10.27;;;;;;;3.98;76.45;97967.28;2627671;54;20030;-69
2021/12/09 11:48:05;;;;;;;19.40;9.80;;;;;;;3.95;76.06;97958.94;2627355;47;20023;-68